sensor_id;sensor_type;location;lat;lon;timestamp;temperature;humidity
360;DHT22;168;48.872;9.226;2023-03-04T00:00:30;3.80;95.50
360;DHT22;168;48.872;9.226;2023-03-04T00:02:58;3.80;95.80
360;DHT22;168;48.872;9.226;2023-03-04T00:05:25;3.80;95.70
360;DHT22;168;48.872;9.226;2023-03-04T00:07:52;3.80;95.70
360;DHT22;168;48.872;9.226;2023-03-04T00:10:20;3.70;95.80
360;DHT22;168;48.872;9.226;2023-03-04T00:12:49;3.70;95.90
360;DHT22;168;48.872;9.226;2023-03-04T00:15:16;3.70;95.90
360;DHT22;168;48.872;9.226;2023-03-04T00:17:44;3.60;96.10
360;DHT22;168;48.872;9.226;2023-03-04T00:20:12;3.60;96.50
360;DHT22;168;48.872;9.226;2023-03-04T00:22:40;3.70;96.20
360;DHT22;168;48.872;9.226;2023-03-04T00:25:08;3.80;96.00
360;DHT22;168;48.872;9.226;2023-03-04T00:27:35;3.80;95.70
360;DHT22;168;48.872;9.226;2023-03-04T00:30:05;3.80;95.60
360;DHT22;168;48.872;9.226;2023-03-04T00:32:33;3.80;95.60
360;DHT22;168;48.872;9.226;2023-03-04T00:35:01;3.70;95.70
360;DHT22;168;48.872;9.226;2023-03-04T00:37:28;3.60;96.20
360;DHT22;168;48.872;9.226;2023-03-04T00:39:55;3.60;96.50
360;DHT22;168;48.872;9.226;2023-03-04T00:42:23;3.60;96.30
360;DHT22;168;48.872;9.226;2023-03-04T00:44:50;3.50;96.40
360;DHT22;168;48.872;9.226;2023-03-04T00:47:19;3.50;96.60
360;DHT22;168;48.872;9.226;2023-03-04T00:49:46;3.40;96.70
360;DHT22;168;48.872;9.226;2023-03-04T00:52:13;3.40;96.70
360;DHT22;168;48.872;9.226;2023-03-04T00:54:41;3.50;96.50
360;DHT22;168;48.872;9.226;2023-03-04T00:57:08;3.50;96.30
360;DHT22;168;48.872;9.226;2023-03-04T00:59:37;3.50;96.30
360;DHT22;168;48.872;9.226;2023-03-04T01:02:05;3.40;96.40
360;DHT22;168;48.872;9.226;2023-03-04T01:04:34;3.30;96.50
360;DHT22;168;48.872;9.226;2023-03-04T01:07:02;3.30;96.60
360;DHT22;168;48.872;9.226;2023-03-04T01:09:30;3.30;96.60
360;DHT22;168;48.872;9.226;2023-03-04T01:11:59;3.40;96.60
360;DHT22;168;48.872;9.226;2023-03-04T01:14:26;3.60;95.60
360;DHT22;168;48.872;9.226;2023-03-04T01:16:53;3.50;95.40
360;DHT22;168;48.872;9.226;2023-03-04T01:19:21;3.30;95.90
360;DHT22;168;48.872;9.226;2023-03-04T01:21:50;3.30;96.00
360;DHT22;168;48.872;9.226;2023-03-04T01:24:17;3.20;96.40
360;DHT22;168;48.872;9.226;2023-03-04T01:26:45;3.20;96.40
360;DHT22;168;48.872;9.226;2023-03-04T01:29:12;3.30;95.80
360;DHT22;168;48.872;9.226;2023-03-04T01:31:40;3.20;96.10
360;DHT22;168;48.872;9.226;2023-03-04T01:34:07;3.10;96.60
360;DHT22;168;48.872;9.226;2023-03-04T01:36:35;3.20;96.40
360;DHT22;168;48.872;9.226;2023-03-04T01:39:04;3.10;96.40
360;DHT22;168;48.872;9.226;2023-03-04T01:41:32;2.90;96.80
360;DHT22;168;48.872;9.226;2023-03-04T01:44:00;2.80;97.10
360;DHT22;168;48.872;9.226;2023-03-04T01:46:29;2.80;97.30
360;DHT22;168;48.872;9.226;2023-03-04T01:48:56;2.80;97.50
360;DHT22;168;48.872;9.226;2023-03-04T01:51:24;2.70;97.50
360;DHT22;168;48.872;9.226;2023-03-04T01:53:51;2.70;97.40
360;DHT22;168;48.872;9.226;2023-03-04T01:56:24;2.70;97.50
360;DHT22;168;48.872;9.226;2023-03-04T01:59:11;2.60;97.60
360;DHT22;168;48.872;9.226;2023-03-04T02:01:41;2.40;97.90
360;DHT22;168;48.872;9.226;2023-03-04T02:04:09;2.30;98.20
360;DHT22;168;48.872;9.226;2023-03-04T02:06:39;2.30;98.50
360;DHT22;168;48.872;9.226;2023-03-04T02:09:07;2.40;98.30
360;DHT22;168;48.872;9.226;2023-03-04T02:11:37;2.20;98.30
360;DHT22;168;48.872;9.226;2023-03-04T02:14:06;2.10;98.90
360;DHT22;168;48.872;9.226;2023-03-04T02:16:33;2.10;99.10
360;DHT22;168;48.872;9.226;2023-03-04T02:19:01;2.20;98.90
360;DHT22;168;48.872;9.226;2023-03-04T02:21:32;2.20;98.60
360;DHT22;168;48.872;9.226;2023-03-04T02:24:06;2.10;98.90
360;DHT22;168;48.872;9.226;2023-03-04T02:26:37;2.10;99.00
360;DHT22;168;48.872;9.226;2023-03-04T02:29:09;2.10;99.00
360;DHT22;168;48.872;9.226;2023-03-04T02:31:38;2.20;98.80
360;DHT22;168;48.872;9.226;2023-03-04T02:34:10;2.20;98.70
360;DHT22;168;48.872;9.226;2023-03-04T02:36:39;2.10;98.90
360;DHT22;168;48.872;9.226;2023-03-04T02:39:11;2.00;99.10
360;DHT22;168;48.872;9.226;2023-03-04T02:41:41;1.80;99.30
360;DHT22;168;48.872;9.226;2023-03-04T02:44:16;1.60;99.80
360;DHT22;168;48.872;9.226;2023-03-04T02:46:45;1.60;99.90
360;DHT22;168;48.872;9.226;2023-03-04T02:49:12;1.50;99.90
360;DHT22;168;48.872;9.226;2023-03-04T02:51:40;1.50;99.90
360;DHT22;168;48.872;9.226;2023-03-04T02:54:13;1.40;99.90
360;DHT22;168;48.872;9.226;2023-03-04T02:56:45;1.40;99.90
360;DHT22;168;48.872;9.226;2023-03-04T02:59:13;1.40;99.90
360;DHT22;168;48.872;9.226;2023-03-04T03:01:41;1.30;99.90
360;DHT22;168;48.872;9.226;2023-03-04T03:04:09;1.30;99.90
360;DHT22;168;48.872;9.226;2023-03-04T03:06:40;1.30;99.90
360;DHT22;168;48.872;9.226;2023-03-04T03:09:08;1.20;99.90
360;DHT22;168;48.872;9.226;2023-03-04T03:11:35;1.20;99.90
360;DHT22;168;48.872;9.226;2023-03-04T03:14:04;1.20;99.90
360;DHT22;168;48.872;9.226;2023-03-04T03:16:32;1.20;99.90
360;DHT22;168;48.872;9.226;2023-03-04T03:18:59;1.20;99.90
360;DHT22;168;48.872;9.226;2023-03-04T03:21:27;1.10;99.90
360;DHT22;168;48.872;9.226;2023-03-04T03:23:54;1.10;99.50
360;DHT22;168;48.872;9.226;2023-03-04T03:26:22;1.20;99.10
360;DHT22;168;48.872;9.226;2023-03-04T03:28:49;1.20;98.90
360;DHT22;168;48.872;9.226;2023-03-04T03:31:18;1.20;98.80
360;DHT22;168;48.872;9.226;2023-03-04T03:33:46;1.20;98.80
360;DHT22;168;48.872;9.226;2023-03-04T03:36:13;1.30;98.60
360;DHT22;168;48.872;9.226;2023-03-04T03:38:40;1.20;98.50
360;DHT22;168;48.872;9.226;2023-03-04T03:41:08;1.10;98.50
360;DHT22;168;48.872;9.226;2023-03-04T03:43:36;1.00;98.60
360;DHT22;168;48.872;9.226;2023-03-04T03:46:07;1.00;98.60
360;DHT22;168;48.872;9.226;2023-03-04T03:48:40;1.00;98.60
360;DHT22;168;48.872;9.226;2023-03-04T03:51:10;0.90;98.60
360;DHT22;168;48.872;9.226;2023-03-04T03:53:40;0.80;98.50
360;DHT22;168;48.872;9.226;2023-03-04T03:56:17;0.80;98.50
360;DHT22;168;48.872;9.226;2023-03-04T03:58:47;0.70;98.40
360;DHT22;168;48.872;9.226;2023-03-04T04:01:18;0.70;98.40
360;DHT22;168;48.872;9.226;2023-03-04T04:03:53;0.60;98.20
360;DHT22;168;48.872;9.226;2023-03-04T04:06:29;0.60;98.10
360;DHT22;168;48.872;9.226;2023-03-04T04:09:00;0.50;98.00
360;DHT22;168;48.872;9.226;2023-03-04T04:11:28;0.40;98.00
360;DHT22;168;48.872;9.226;2023-03-04T04:14:02;0.40;97.80
360;DHT22;168;48.872;9.226;2023-03-04T04:16:41;0.40;97.80
360;DHT22;168;48.872;9.226;2023-03-04T04:19:18;0.40;97.70
360;DHT22;168;48.872;9.226;2023-03-04T04:21:46;0.50;97.60
360;DHT22;168;48.872;9.226;2023-03-04T04:24:16;0.50;97.70
360;DHT22;168;48.872;9.226;2023-03-04T04:26:47;0.50;97.70
360;DHT22;168;48.872;9.226;2023-03-04T04:29:15;0.40;97.60
360;DHT22;168;48.872;9.226;2023-03-04T04:31:43;0.40;97.70
360;DHT22;168;48.872;9.226;2023-03-04T04:34:12;0.30;97.50
360;DHT22;168;48.872;9.226;2023-03-04T04:36:39;0.20;97.10
360;DHT22;168;48.872;9.226;2023-03-04T04:39:06;0.20;97.10
360;DHT22;168;48.872;9.226;2023-03-04T04:41:36;0.10;96.90
360;DHT22;168;48.872;9.226;2023-03-04T04:44:04;0.10;96.50
360;DHT22;168;48.872;9.226;2023-03-04T04:46:32;0.10;96.50
360;DHT22;168;48.872;9.226;2023-03-04T04:49:00;0.10;96.10
360;DHT22;168;48.872;9.226;2023-03-04T04:51:29;0.10;96.10
360;DHT22;168;48.872;9.226;2023-03-04T04:53:57;0.10;96.20
360;DHT22;168;48.872;9.226;2023-03-04T04:56:26;0.10;95.90
360;DHT22;168;48.872;9.226;2023-03-04T04:58:56;0.10;95.80
360;DHT22;168;48.872;9.226;2023-03-04T05:01:24;0.10;95.90
360;DHT22;168;48.872;9.226;2023-03-04T05:03:51;0.00;95.50
360;DHT22;168;48.872;9.226;2023-03-04T05:06:21;0.10;95.40
360;DHT22;168;48.872;9.226;2023-03-04T05:08:51;0.10;95.80
360;DHT22;168;48.872;9.226;2023-03-04T05:11:19;0.10;95.80
360;DHT22;168;48.872;9.226;2023-03-04T05:13:47;0.10;95.80
360;DHT22;168;48.872;9.226;2023-03-04T05:16:15;0.00;95.50
360;DHT22;168;48.872;9.226;2023-03-04T05:18:43;0.00;95.40
360;DHT22;168;48.872;9.226;2023-03-04T05:21:10;0.00;95.30
360;DHT22;168;48.872;9.226;2023-03-04T05:23:39;0.10;95.60
360;DHT22;168;48.872;9.226;2023-03-04T05:26:10;0.00;95.50
360;DHT22;168;48.872;9.226;2023-03-04T05:28:37;0.10;95.20
360;DHT22;168;48.872;9.226;2023-03-04T05:31:05;0.00;95.20
360;DHT22;168;48.872;9.226;2023-03-04T05:33:33;0.00;95.20
360;DHT22;168;48.872;9.226;2023-03-04T05:36:01;0.00;95.00
360;DHT22;168;48.872;9.226;2023-03-04T05:38:28;0.00;95.20
360;DHT22;168;48.872;9.226;2023-03-04T05:40:57;0.00;94.60
360;DHT22;168;48.872;9.226;2023-03-04T05:43:27;0.10;94.70
360;DHT22;168;48.872;9.226;2023-03-04T05:45:55;0.10;95.00
360;DHT22;168;48.872;9.226;2023-03-04T05:48:23;0.10;95.10
360;DHT22;168;48.872;9.226;2023-03-04T05:50:53;0.10;95.00
360;DHT22;168;48.872;9.226;2023-03-04T05:53:21;0.10;94.70
360;DHT22;168;48.872;9.226;2023-03-04T05:55:48;0.20;95.00
360;DHT22;168;48.872;9.226;2023-03-04T05:58:16;0.10;94.90
360;DHT22;168;48.872;9.226;2023-03-04T06:00:46;0.10;94.80
360;DHT22;168;48.872;9.226;2023-03-04T06:03:14;0.00;94.70
360;DHT22;168;48.872;9.226;2023-03-04T06:05:42;0.10;94.90
360;DHT22;168;48.872;9.226;2023-03-04T06:08:10;0.10;95.00
360;DHT22;168;48.872;9.226;2023-03-04T06:10:38;0.20;95.40
360;DHT22;168;48.872;9.226;2023-03-04T06:13:07;0.30;95.60
360;DHT22;168;48.872;9.226;2023-03-04T06:15:34;0.30;95.90
360;DHT22;168;48.872;9.226;2023-03-04T06:18:03;0.40;96.20
360;DHT22;168;48.872;9.226;2023-03-04T06:20:30;0.40;96.10
360;DHT22;168;48.872;9.226;2023-03-04T06:22:58;0.40;96.30
360;DHT22;168;48.872;9.226;2023-03-04T06:25:25;0.40;96.30
360;DHT22;168;48.872;9.226;2023-03-04T06:27:53;0.40;96.30
360;DHT22;168;48.872;9.226;2023-03-04T06:30:21;0.30;96.00
360;DHT22;168;48.872;9.226;2023-03-04T06:32:48;0.30;96.00
360;DHT22;168;48.872;9.226;2023-03-04T06:35:18;0.30;96.00
360;DHT22;168;48.872;9.226;2023-03-04T06:37:45;0.30;95.90
360;DHT22;168;48.872;9.226;2023-03-04T06:40:14;0.40;95.70
360;DHT22;168;48.872;9.226;2023-03-04T06:42:42;0.60;96.20
360;DHT22;168;48.872;9.226;2023-03-04T06:45:10;0.70;96.60
360;DHT22;168;48.872;9.226;2023-03-04T06:47:38;0.80;96.70
360;DHT22;168;48.872;9.226;2023-03-04T06:50:06;0.70;96.40
360;DHT22;168;48.872;9.226;2023-03-04T06:52:35;0.70;96.30
360;DHT22;168;48.872;9.226;2023-03-04T06:55:03;0.70;96.20
360;DHT22;168;48.872;9.226;2023-03-04T06:57:30;0.90;96.30
360;DHT22;168;48.872;9.226;2023-03-04T06:59:58;1.00;96.50
360;DHT22;168;48.872;9.226;2023-03-04T07:02:25;1.10;96.60
360;DHT22;168;48.872;9.226;2023-03-04T07:04:53;1.30;96.50
360;DHT22;168;48.872;9.226;2023-03-04T07:07:21;1.40;96.60
360;DHT22;168;48.872;9.226;2023-03-04T07:09:50;1.50;96.70
360;DHT22;168;48.872;9.226;2023-03-04T07:12:17;1.40;96.50
360;DHT22;168;48.872;9.226;2023-03-04T07:14:44;1.40;96.50
360;DHT22;168;48.872;9.226;2023-03-04T07:17:12;1.30;96.40
360;DHT22;168;48.872;9.226;2023-03-04T07:19:39;1.30;96.60
360;DHT22;168;48.872;9.226;2023-03-04T07:22:07;1.30;96.50
360;DHT22;168;48.872;9.226;2023-03-04T07:24:35;1.30;96.50
360;DHT22;168;48.872;9.226;2023-03-04T07:27:03;1.40;96.50
360;DHT22;168;48.872;9.226;2023-03-04T07:29:31;1.40;96.60
360;DHT22;168;48.872;9.226;2023-03-04T07:31:58;1.30;96.40
360;DHT22;168;48.872;9.226;2023-03-04T07:34:25;1.30;96.30
360;DHT22;168;48.872;9.226;2023-03-04T07:36:53;1.30;96.40
360;DHT22;168;48.872;9.226;2023-03-04T07:39:21;1.40;96.30
360;DHT22;168;48.872;9.226;2023-03-04T07:41:48;1.50;96.90
360;DHT22;168;48.872;9.226;2023-03-04T07:44:17;1.50;96.50
360;DHT22;168;48.872;9.226;2023-03-04T07:46:44;1.40;96.50
360;DHT22;168;48.872;9.226;2023-03-04T07:49:12;1.50;96.50
360;DHT22;168;48.872;9.226;2023-03-04T07:51:40;1.50;96.40
360;DHT22;168;48.872;9.226;2023-03-04T07:54:08;1.60;96.40
360;DHT22;168;48.872;9.226;2023-03-04T07:56:36;1.70;96.70
360;DHT22;168;48.872;9.226;2023-03-04T07:59:03;1.80;96.40
360;DHT22;168;48.872;9.226;2023-03-04T08:01:34;1.90;96.40
360;DHT22;168;48.872;9.226;2023-03-04T08:04:02;2.20;96.20
360;DHT22;168;48.872;9.226;2023-03-04T08:06:30;2.30;95.90
360;DHT22;168;48.872;9.226;2023-03-04T08:08:59;2.30;95.60
360;DHT22;168;48.872;9.226;2023-03-04T08:11:28;2.40;95.40
360;DHT22;168;48.872;9.226;2023-03-04T08:13:57;2.50;95.00
360;DHT22;168;48.872;9.226;2023-03-04T08:16:25;2.50;95.20
360;DHT22;168;48.872;9.226;2023-03-04T08:18:55;2.50;94.90
360;DHT22;168;48.872;9.226;2023-03-04T08:21:24;2.20;95.20
360;DHT22;168;48.872;9.226;2023-03-04T08:23:52;2.10;95.70
360;DHT22;168;48.872;9.226;2023-03-04T08:26:23;2.00;95.90
360;DHT22;168;48.872;9.226;2023-03-04T08:28:51;2.00;95.90
360;DHT22;168;48.872;9.226;2023-03-04T08:31:19;2.00;95.90
360;DHT22;168;48.872;9.226;2023-03-04T08:33:47;2.00;95.90
360;DHT22;168;48.872;9.226;2023-03-04T08:36:16;2.00;95.90
360;DHT22;168;48.872;9.226;2023-03-04T08:38:43;2.00;95.90
360;DHT22;168;48.872;9.226;2023-03-04T08:41:12;2.10;96.10
360;DHT22;168;48.872;9.226;2023-03-04T08:43:40;2.10;96.10
360;DHT22;168;48.872;9.226;2023-03-04T08:46:08;2.20;96.00
360;DHT22;168;48.872;9.226;2023-03-04T08:48:36;2.40;95.90
360;DHT22;168;48.872;9.226;2023-03-04T08:51:06;2.50;96.00
360;DHT22;168;48.872;9.226;2023-03-04T08:53:37;2.70;95.80
360;DHT22;168;48.872;9.226;2023-03-04T08:56:06;3.00;95.60
360;DHT22;168;48.872;9.226;2023-03-04T08:58:34;3.20;95.30
360;DHT22;168;48.872;9.226;2023-03-04T09:01:02;3.50;94.20
360;DHT22;168;48.872;9.226;2023-03-04T09:03:30;3.70;93.30
360;DHT22;168;48.872;9.226;2023-03-04T09:05:58;3.80;93.00
360;DHT22;168;48.872;9.226;2023-03-04T09:08:28;3.90;92.50
360;DHT22;168;48.872;9.226;2023-03-04T09:10:57;4.00;92.30
360;DHT22;168;48.872;9.226;2023-03-04T09:13:27;4.10;91.50
360;DHT22;168;48.872;9.226;2023-03-04T09:15:55;4.20;91.20
360;DHT22;168;48.872;9.226;2023-03-04T09:18:24;4.30;90.80
360;DHT22;168;48.872;9.226;2023-03-04T09:20:52;4.50;90.00
360;DHT22;168;48.872;9.226;2023-03-04T09:23:20;4.50;89.30
360;DHT22;168;48.872;9.226;2023-03-04T09:25:48;4.40;89.60
360;DHT22;168;48.872;9.226;2023-03-04T09:28:18;4.50;89.60
360;DHT22;168;48.872;9.226;2023-03-04T09:30:45;4.40;89.50
360;DHT22;168;48.872;9.226;2023-03-04T09:33:13;4.50;88.90
360;DHT22;168;48.872;9.226;2023-03-04T09:35:41;4.50;89.80
360;DHT22;168;48.872;9.226;2023-03-04T09:38:09;4.60;90.10
360;DHT22;168;48.872;9.226;2023-03-04T09:40:39;4.80;89.50
360;DHT22;168;48.872;9.226;2023-03-04T09:43:13;5.00;87.80
360;DHT22;168;48.872;9.226;2023-03-04T09:45:47;5.00;87.00
360;DHT22;168;48.872;9.226;2023-03-04T09:48:20;5.10;86.90
360;DHT22;168;48.872;9.226;2023-03-04T09:51:01;5.10;86.10
360;DHT22;168;48.872;9.226;2023-03-04T09:53:38;5.00;86.60
360;DHT22;168;48.872;9.226;2023-03-04T09:56:08;5.10;85.90
360;DHT22;168;48.872;9.226;2023-03-04T09:58:43;5.20;85.90
360;DHT22;168;48.872;9.226;2023-03-04T10:01:20;5.20;86.30
360;DHT22;168;48.872;9.226;2023-03-04T10:03:52;5.30;85.90
360;DHT22;168;48.872;9.226;2023-03-04T10:06:22;5.50;85.40
360;DHT22;168;48.872;9.226;2023-03-04T10:08:54;5.60;84.00
360;DHT22;168;48.872;9.226;2023-03-04T10:11:26;5.60;83.20
360;DHT22;168;48.872;9.226;2023-03-04T10:14:03;5.60;83.50
360;DHT22;168;48.872;9.226;2023-03-04T10:16:39;5.60;83.40
360;DHT22;168;48.872;9.226;2023-03-04T10:19:27;5.80;82.90
360;DHT22;168;48.872;9.226;2023-03-04T10:21:57;5.80;82.50
360;DHT22;168;48.872;9.226;2023-03-04T10:24:28;6.00;83.20
360;DHT22;168;48.872;9.226;2023-03-04T10:27:00;5.90;83.60
360;DHT22;168;48.872;9.226;2023-03-04T10:29:32;5.90;84.00
360;DHT22;168;48.872;9.226;2023-03-04T10:32:01;5.80;84.40
360;DHT22;168;48.872;9.226;2023-03-04T10:34:28;5.70;83.90
360;DHT22;168;48.872;9.226;2023-03-04T10:36:58;5.60;84.60
360;DHT22;168;48.872;9.226;2023-03-04T10:39:28;5.70;84.30
360;DHT22;168;48.872;9.226;2023-03-04T10:41:59;5.60;84.20
360;DHT22;168;48.872;9.226;2023-03-04T10:44:27;5.60;84.60
360;DHT22;168;48.872;9.226;2023-03-04T10:46:56;5.60;84.50
360;DHT22;168;48.872;9.226;2023-03-04T10:49:26;5.60;84.50
360;DHT22;168;48.872;9.226;2023-03-04T10:52:00;5.60;84.50
360;DHT22;168;48.872;9.226;2023-03-04T10:54:30;5.60;83.20
360;DHT22;168;48.872;9.226;2023-03-04T10:57:02;5.50;83.30
360;DHT22;168;48.872;9.226;2023-03-04T10:59:45;5.30;83.40
360;DHT22;168;48.872;9.226;2023-03-04T11:02:21;5.20;84.00
360;DHT22;168;48.872;9.226;2023-03-04T11:04:53;5.20;84.20
360;DHT22;168;48.872;9.226;2023-03-04T11:07:22;5.20;84.60
360;DHT22;168;48.872;9.226;2023-03-04T11:09:50;5.30;84.20
360;DHT22;168;48.872;9.226;2023-03-04T11:12:20;5.20;83.90
360;DHT22;168;48.872;9.226;2023-03-04T11:14:49;5.10;84.60
360;DHT22;168;48.872;9.226;2023-03-04T11:17:22;5.00;84.80
360;DHT22;168;48.872;9.226;2023-03-04T11:19:55;5.00;84.90
360;DHT22;168;48.872;9.226;2023-03-04T11:22:26;5.00;85.20
360;DHT22;168;48.872;9.226;2023-03-04T11:24:58;5.00;85.00
360;DHT22;168;48.872;9.226;2023-03-04T11:27:35;4.90;84.40
360;DHT22;168;48.872;9.226;2023-03-04T11:30:18;4.70;84.70
360;DHT22;168;48.872;9.226;2023-03-04T11:32:50;4.70;84.60
360;DHT22;168;48.872;9.226;2023-03-04T11:35:24;4.70;85.00
360;DHT22;168;48.872;9.226;2023-03-04T11:38:01;4.80;84.30
360;DHT22;168;48.872;9.226;2023-03-04T11:40:35;4.50;84.90
360;DHT22;168;48.872;9.226;2023-03-04T11:43:10;4.40;85.80
360;DHT22;168;48.872;9.226;2023-03-04T11:48:48;4.50;86.50
360;DHT22;168;48.872;9.226;2023-03-04T11:51:24;4.70;86.50
360;DHT22;168;48.872;9.226;2023-03-04T11:54:08;4.80;86.60
360;DHT22;168;48.872;9.226;2023-03-04T11:56:43;4.70;86.70
360;DHT22;168;48.872;9.226;2023-03-04T11:59:37;4.80;86.30
360;DHT22;168;48.872;9.226;2023-03-04T12:02:15;4.50;86.60
360;DHT22;168;48.872;9.226;2023-03-04T12:05:05;4.30;87.30
360;DHT22;168;48.872;9.226;2023-03-04T12:08:07;4.10;87.80
360;DHT22;168;48.872;9.226;2023-03-04T12:10:42;4.10;88.30
360;DHT22;168;48.872;9.226;2023-03-04T12:13:29;4.20;88.40
360;DHT22;168;48.872;9.226;2023-03-04T12:16:20;4.20;88.40
360;DHT22;168;48.872;9.226;2023-03-04T12:19:03;4.30;87.90
360;DHT22;168;48.872;9.226;2023-03-04T12:21:55;4.50;87.60
360;DHT22;168;48.872;9.226;2023-03-04T12:27:29;4.80;86.60
360;DHT22;168;48.872;9.226;2023-03-04T12:30:02;4.80;86.20
360;DHT22;168;48.872;9.226;2023-03-04T12:32:39;4.60;86.60
360;DHT22;168;48.872;9.226;2023-03-04T12:35:23;4.50;87.10
360;DHT22;168;48.872;9.226;2023-03-04T12:38:08;4.50;87.10
360;DHT22;168;48.872;9.226;2023-03-04T12:40:44;4.60;87.10
360;DHT22;168;48.872;9.226;2023-03-04T12:43:35;4.50;86.90
360;DHT22;168;48.872;9.226;2023-03-04T12:46:15;4.30;86.80
360;DHT22;168;48.872;9.226;2023-03-04T12:48:51;4.00;87.80
360;DHT22;168;48.872;9.226;2023-03-04T12:51:30;4.10;87.60
360;DHT22;168;48.872;9.226;2023-03-04T12:54:09;4.10;87.40
360;DHT22;168;48.872;9.226;2023-03-04T12:56:42;4.20;87.50
360;DHT22;168;48.872;9.226;2023-03-04T12:59:17;4.30;87.10
360;DHT22;168;48.872;9.226;2023-03-04T13:01:53;4.30;87.00
360;DHT22;168;48.872;9.226;2023-03-04T13:04:26;4.20;87.20
360;DHT22;168;48.872;9.226;2023-03-04T13:07:09;4.20;87.60
360;DHT22;168;48.872;9.226;2023-03-04T13:09:49;4.30;87.00
360;DHT22;168;48.872;9.226;2023-03-04T13:12:21;4.30;86.50
360;DHT22;168;48.872;9.226;2023-03-04T13:15:17;4.30;86.50
360;DHT22;168;48.872;9.226;2023-03-04T13:17:46;4.40;86.30
360;DHT22;168;48.872;9.226;2023-03-04T13:20:21;4.40;86.00
360;DHT22;168;48.872;9.226;2023-03-04T13:22:53;4.40;86.00
360;DHT22;168;48.872;9.226;2023-03-04T13:25:30;4.50;86.00
360;DHT22;168;48.872;9.226;2023-03-04T13:28:24;4.50;85.40
360;DHT22;168;48.872;9.226;2023-03-04T13:31:13;4.20;86.70
360;DHT22;168;48.872;9.226;2023-03-04T13:33:56;4.10;86.90
360;DHT22;168;48.872;9.226;2023-03-04T13:36:33;4.10;87.10
360;DHT22;168;48.872;9.226;2023-03-04T13:39:02;4.20;87.10
360;DHT22;168;48.872;9.226;2023-03-04T13:41:33;4.40;86.40
360;DHT22;168;48.872;9.226;2023-03-04T13:47:46;4.40;86.00
360;DHT22;168;48.872;9.226;2023-03-04T13:50:28;4.50;85.70
360;DHT22;168;48.872;9.226;2023-03-04T13:56:32;4.40;86.50
360;DHT22;168;48.872;9.226;2023-03-04T13:59:29;4.50;85.90
360;DHT22;168;48.872;9.226;2023-03-04T14:02:00;4.50;85.70
360;DHT22;168;48.872;9.226;2023-03-04T14:04:34;4.30;86.40
360;DHT22;168;48.872;9.226;2023-03-04T14:07:17;4.30;86.70
360;DHT22;168;48.872;9.226;2023-03-04T14:09:54;4.40;86.70
360;DHT22;168;48.872;9.226;2023-03-04T14:12:22;4.50;86.50
360;DHT22;168;48.872;9.226;2023-03-04T14:14:50;4.30;86.60
360;DHT22;168;48.872;9.226;2023-03-04T14:17:21;3.90;87.50
360;DHT22;168;48.872;9.226;2023-03-04T14:19:50;3.80;88.20
360;DHT22;168;48.872;9.226;2023-03-04T14:22:21;3.70;88.40
360;DHT22;168;48.872;9.226;2023-03-04T14:24:57;3.80;88.60
360;DHT22;168;48.872;9.226;2023-03-04T14:27:25;3.90;88.60
360;DHT22;168;48.872;9.226;2023-03-04T14:29:56;4.00;88.30
360;DHT22;168;48.872;9.226;2023-03-04T14:32:24;4.20;88.00
360;DHT22;168;48.872;9.226;2023-03-04T14:34:57;4.30;87.10
360;DHT22;168;48.872;9.226;2023-03-04T14:37:26;4.20;87.30
360;DHT22;168;48.872;9.226;2023-03-04T14:39:56;4.10;87.50
360;DHT22;168;48.872;9.226;2023-03-04T14:42:30;4.00;87.90
360;DHT22;168;48.872;9.226;2023-03-04T14:45:03;4.10;87.70
360;DHT22;168;48.872;9.226;2023-03-04T14:47:34;4.20;87.40
360;DHT22;168;48.872;9.226;2023-03-04T14:50:06;4.10;87.70
360;DHT22;168;48.872;9.226;2023-03-04T14:52:36;4.10;88.10
360;DHT22;168;48.872;9.226;2023-03-04T14:55:31;4.30;87.20
360;DHT22;168;48.872;9.226;2023-03-04T14:58:07;4.10;87.20
360;DHT22;168;48.872;9.226;2023-03-04T15:00:36;4.00;87.90
360;DHT22;168;48.872;9.226;2023-03-04T15:03:18;4.00;87.90
360;DHT22;168;48.872;9.226;2023-03-04T15:05:47;4.00;87.60
360;DHT22;168;48.872;9.226;2023-03-04T15:08:20;3.90;87.80
360;DHT22;168;48.872;9.226;2023-03-04T15:10:54;3.90;88.20
360;DHT22;168;48.872;9.226;2023-03-04T15:13:36;3.80;88.40
360;DHT22;168;48.872;9.226;2023-03-04T15:16:04;3.70;88.70
360;DHT22;168;48.872;9.226;2023-03-04T15:18:32;3.60;88.80
360;DHT22;168;48.872;9.226;2023-03-04T15:21:03;3.60;88.90
360;DHT22;168;48.872;9.226;2023-03-04T15:23:32;3.70;88.90
360;DHT22;168;48.872;9.226;2023-03-04T15:26:00;3.70;88.90
360;DHT22;168;48.872;9.226;2023-03-04T15:28:31;3.70;88.80
360;DHT22;168;48.872;9.226;2023-03-04T15:31:00;3.90;88.70
360;DHT22;168;48.872;9.226;2023-03-04T15:33:27;3.90;88.40
360;DHT22;168;48.872;9.226;2023-03-04T15:35:56;4.00;88.30
360;DHT22;168;48.872;9.226;2023-03-04T15:38:26;4.00;88.20
360;DHT22;168;48.872;9.226;2023-03-04T15:40:54;4.00;88.10
360;DHT22;168;48.872;9.226;2023-03-04T15:43:24;3.90;88.40
360;DHT22;168;48.872;9.226;2023-03-04T15:45:51;4.00;88.60
360;DHT22;168;48.872;9.226;2023-03-04T15:48:19;4.20;87.70
360;DHT22;168;48.872;9.226;2023-03-04T15:50:49;4.10;88.20
360;DHT22;168;48.872;9.226;2023-03-04T15:53:27;4.10;88.50
360;DHT22;168;48.872;9.226;2023-03-04T15:55:59;4.10;88.50
360;DHT22;168;48.872;9.226;2023-03-04T15:58:29;4.30;87.80
360;DHT22;168;48.872;9.226;2023-03-04T16:00:58;4.30;87.60
360;DHT22;168;48.872;9.226;2023-03-04T16:03:26;4.30;87.70
360;DHT22;168;48.872;9.226;2023-03-04T16:05:53;4.20;87.80
360;DHT22;168;48.872;9.226;2023-03-04T16:08:22;4.20;87.60
360;DHT22;168;48.872;9.226;2023-03-04T16:10:52;4.20;87.80
360;DHT22;168;48.872;9.226;2023-03-04T16:13:22;4.30;87.70
360;DHT22;168;48.872;9.226;2023-03-04T16:15:49;4.50;87.10
360;DHT22;168;48.872;9.226;2023-03-04T16:18:18;4.60;86.40
360;DHT22;168;48.872;9.226;2023-03-04T16:20:47;4.50;86.70
360;DHT22;168;48.872;9.226;2023-03-04T16:23:20;4.70;86.50
360;DHT22;168;48.872;9.226;2023-03-04T16:25:50;4.70;86.10
360;DHT22;168;48.872;9.226;2023-03-04T16:28:19;4.60;86.70
360;DHT22;168;48.872;9.226;2023-03-04T16:30:47;4.60;87.00
360;DHT22;168;48.872;9.226;2023-03-04T16:33:15;4.60;86.90
360;DHT22;168;48.872;9.226;2023-03-04T16:35:43;4.60;87.00
360;DHT22;168;48.872;9.226;2023-03-04T16:38:17;4.50;87.30
360;DHT22;168;48.872;9.226;2023-03-04T16:40:51;4.50;87.50
360;DHT22;168;48.872;9.226;2023-03-04T16:43:21;4.50;87.70
360;DHT22;168;48.872;9.226;2023-03-04T16:45:48;4.60;87.60
360;DHT22;168;48.872;9.226;2023-03-04T16:48:16;4.60;87.80
360;DHT22;168;48.872;9.226;2023-03-04T16:50:45;4.80;87.60
360;DHT22;168;48.872;9.226;2023-03-04T16:53:24;4.80;87.20
360;DHT22;168;48.872;9.226;2023-03-04T16:55:53;4.70;87.60
360;DHT22;168;48.872;9.226;2023-03-04T16:58:21;4.80;87.30
360;DHT22;168;48.872;9.226;2023-03-04T17:00:49;4.80;87.50
360;DHT22;168;48.872;9.226;2023-03-04T17:03:26;4.80;87.70
360;DHT22;168;48.872;9.226;2023-03-04T17:05:56;4.90;87.00
360;DHT22;168;48.872;9.226;2023-03-04T17:09:09;4.80;87.20
360;DHT22;168;48.872;9.226;2023-03-04T17:11:46;4.90;87.10
360;DHT22;168;48.872;9.226;2023-03-04T17:14:16;4.90;87.40
360;DHT22;168;48.872;9.226;2023-03-04T17:16:49;5.00;87.10
360;DHT22;168;48.872;9.226;2023-03-04T17:19:50;4.90;87.20
360;DHT22;168;48.872;9.226;2023-03-04T17:22:31;4.80;87.50
360;DHT22;168;48.872;9.226;2023-03-04T17:25:05;4.80;87.70
360;DHT22;168;48.872;9.226;2023-03-04T17:28:08;4.90;87.60
360;DHT22;168;48.872;9.226;2023-03-04T17:30:41;4.80;87.90